Time;durP1;ratioP1;P1;durP2;ratioP2;P2;SDS_P1;SDS_P2;PMS_P1;PMS_P2;Temp;Humidity;BMP_temperature;BMP_pressure;BME280_temperature;BME280_humidity;BME280_pressure;Samples;Min_cycle;Max_cycle;Signal;HPM_P1;HPM_P2
2022/04/12 00:00:44;;;;;;;19.43;9.60;;;3.70;99.90;;;;;;5011653;28;20060;-80
2022/04/12 00:03:11;;;;;;;16.53;10.13;;;3.70;99.90;;;;;;5011597;28;20073;-80
2022/04/12 00:05:38;;;;;;;16.93;10.07;;;3.70;99.90;;;;;;5014518;28;20034;-80
2022/04/12 00:08:05;;;;;;;15.50;10.33;;;3.70;99.90;;;;;;5014220;28;20041;-80
2022/04/12 00:10:32;;;;;;;14.40;9.13;;;3.70;99.90;;;;;;5015354;28;20450;-80
2022/04/12 00:12:59;;;;;;;14.70;9.50;;;3.60;99.90;;;;;;5015616;28;20029;-80
2022/04/12 00:15:24;;;;;;;12.17;8.53;;;3.60;99.90;;;;;;5030529;28;20026;-80
2022/04/12 00:20:35;;;;;;;17.97;8.27;;;3.60;99.90;;;;;;5015360;28;20051;-80
2022/04/12 00:23:01;;;;;;;16.30;8.73;;;3.50;99.90;;;;;;5015140;28;20384;-80
2022/04/12 00:25:27;;;;;;;17.03;7.97;;;3.50;99.90;;;;;;5014146;28;20494;-81
2022/04/12 00:27:56;;;;;;;15.60;7.93;;;3.40;99.90;;;;;;5013970;28;20387;-81
2022/04/12 00:30:23;;;;;;;13.03;8.40;;;3.40;99.90;;;;;;5015169;28;20030;-81
2022/04/12 00:32:50;;;;;;;13.07;8.33;;;3.30;99.90;;;;;;5014975;28;20049;-80
2022/04/12 00:35:17;;;;;;;12.07;8.67;;;3.30;99.90;;;;;;5030334;28;20027;-80
2022/04/12 00:37:43;;;;;;;16.43;7.83;;;3.30;99.90;;;;;;5014961;28;20482;-80
2022/04/12 00:40:09;;;;;;;12.20;7.87;;;3.30;99.90;;;;;;5030293;28;20053;-80
2022/04/12 00:42:35;;;;;;;13.43;8.50;;;3.30;99.90;;;;;;5029995;28;20437;-80
2022/04/12 00:45:00;;;;;;;11.37;8.00;;;3.30;99.90;;;;;;5014678;28;20034;-80
2022/04/12 00:47:26;;;;;;;14.00;7.63;;;3.30;99.90;;;;;;5014303;28;20026;-80
2022/04/12 00:49:52;;;;;;;16.30;8.63;;;3.30;99.90;;;;;;5021473;28;20463;-80
2022/04/12 00:52:18;;;;;;;15.77;8.10;;;3.40;99.90;;;;;;5014936;28;20034;-80
2022/04/12 00:54:44;;;;;;;16.30;9.00;;;3.40;99.90;;;;;;5029822;28;20053;-80
2022/04/12 00:57:11;;;;;;;18.60;8.90;;;3.40;99.90;;;;;;5013363;28;20079;-80
2022/04/12 00:59:37;;;;;;;18.53;8.77;;;3.40;99.90;;;;;;5014636;28;20433;-80
2022/04/12 01:02:04;;;;;;;14.80;9.03;;;3.40;99.90;;;;;;5029845;28;20197;-80
2022/04/12 01:04:30;;;;;;;18.73;10.70;;;3.40;99.90;;;;;;5014091;28;20029;-80
2022/04/12 01:06:56;;;;;;;19.80;12.93;;;3.40;99.90;;;;;;4996687;28;20037;-80
2022/04/12 01:09:26;;;;;;;20.90;12.60;;;3.40;99.90;;;;;;5005847;28;20038;-80
2022/04/12 01:11:55;;;;;;;15.83;9.90;;;3.40;99.90;;;;;;5014174;28;20025;-80
2022/04/12 01:14:22;;;;;;;13.13;8.37;;;3.40;99.90;;;;;;5014180;28;20779;-76
2022/04/12 01:16:48;;;;;;;14.13;8.23;;;3.30;99.90;;;;;;5012408;28;20041;-77
2022/04/12 01:19:14;;;;;;;13.43;8.53;;;3.30;99.90;;;;;;5013566;28;20034;-76
2022/04/12 01:22:06;;;;;;;16.33;10.17;;;3.30;99.90;;;;;;5013355;28;20033;-77
2022/04/12 01:24:33;;;;;;;22.90;10.67;;;3.20;99.90;;;;;;5002289;28;20029;-76
2022/04/12 01:26:59;;;;;;;21.77;11.63;;;3.20;99.90;;;;;;5013574;28;20030;-77
2022/04/12 01:29:25;;;;;;;21.83;11.13;;;3.20;99.90;;;;;;5013374;28;20022;-77
2022/04/12 01:31:51;;;;;;;18.97;11.80;;;3.20;99.90;;;;;;5013326;28;20030;-77
2022/04/12 01:34:17;;;;;;;19.13;10.90;;;3.20;99.90;;;;;;5013203;28;20037;-77
2022/04/12 01:36:42;;;;;;;18.73;9.40;;;3.10;99.90;;;;;;5012935;28;20048;-77
2022/04/12 01:39:08;;;;;;;16.20;8.97;;;3.10;99.90;;;;;;5012966;28;20382;-77
2022/04/12 01:41:34;;;;;;;14.97;8.43;;;3.10;99.90;;;;;;5012788;28;20033;-77
2022/04/12 01:43:59;;;;;;;13.77;8.10;;;3.00;99.90;;;;;;5013072;28;20030;-77
2022/04/12 01:46:26;;;;;;;14.47;8.37;;;3.00;99.90;;;;;;5012842;28;20029;-76
2022/04/12 01:48:52;;;;;;;20.00;8.93;;;2.90;99.90;;;;;;5011086;28;20129;-77
2022/04/12 01:51:18;;;;;;;12.70;7.83;;;2.90;99.90;;;;;;5010738;28;20034;-77
2022/04/12 01:53:43;;;;;;;16.03;8.37;;;2.80;99.90;;;;;;5028094;28;20380;-76
2022/04/12 01:56:09;;;;;;;15.97;8.40;;;2.80;99.90;;;;;;5012657;28;20028;-77
2022/04/12 01:58:36;;;;;;;17.60;10.00;;;2.70;99.90;;;;;;5012595;28;20032;-77
2022/04/12 02:01:02;;;;;;;15.67;8.10;;;2.70;99.90;;;;;;5012445;28;20502;-77
2022/04/12 02:03:27;;;;;;;17.87;10.23;;;2.60;99.90;;;;;;5011379;28;20073;-77
2022/04/12 02:05:54;;;;;;;21.40;11.03;;;2.60;99.90;;;;;;5012929;28;20422;-77
2022/04/12 02:08:20;;;;;;;20.83;10.23;;;2.50;99.90;;;;;;5012581;28;20026;-77
2022/04/12 02:10:46;;;;;;;27.73;13.23;;;2.50;99.90;;;;;;5012362;28;20084;-77
2022/04/12 02:13:12;;;;;;;43.43;20.00;;;2.50;99.90;;;;;;5012363;28;20028;-76
2022/04/12 02:15:37;;;;;;;53.73;24.03;;;2.40;99.90;;;;;;5012397;28;20056;-77
2022/04/12 02:18:03;;;;;;;45.00;20.53;;;2.40;99.90;;;;;;5012732;28;20805;-77
2022/04/12 02:20:28;;;;;;;34.23;16.70;;;2.40;99.90;;;;;;5012531;28;20033;-81
2022/04/12 02:22:54;;;;;;;26.73;14.83;;;2.30;99.90;;;;;;5013434;28;20026;-81
2022/04/12 02:25:19;;;;;;;18.63;9.27;;;2.30;99.90;;;;;;5027984;28;20018;-81
2022/04/12 02:27:45;;;;;;;12.60;7.97;;;2.30;99.90;;;;;;5012973;28;20386;-81
2022/04/12 02:30:12;;;;;;;12.53;7.50;;;2.30;99.90;;;;;;5012642;28;20030;-81
2022/04/12 02:32:39;;;;;;;13.37;7.03;;;2.30;99.90;;;;;;5012563;28;20038;-81
2022/04/12 02:35:05;;;;;;;10.77;7.27;;;2.30;99.90;;;;;;5027842;28;20026;-81
2022/04/12 02:37:30;;;;;;;10.20;6.40;;;2.20;99.90;;;;;;5011431;28;20025;-81
2022/04/12 02:39:56;;;;;;;14.47;6.50;;;2.20;99.90;;;;;;5012199;28;20033;-81
2022/04/12 02:42:21;;;;;;;9.80;6.00;;;2.20;99.90;;;;;;5012457;28;20035;-81
2022/04/12 02:44:47;;;;;;;10.83;6.17;;;2.20;99.90;;;;;;5012484;28;20029;-82
2022/04/12 02:47:12;;;;;;;9.63;6.40;;;2.20;99.90;;;;;;5011827;28;20391;-81
2022/04/12 02:49:38;;;;;;;11.47;6.10;;;2.20;99.90;;;;;;5005567;28;20066;-81
2022/04/12 02:52:04;;;;;;;9.37;6.07;;;2.10;99.90;;;;;;5012496;28;20026;-81
2022/04/12 02:54:30;;;;;;;12.00;6.43;;;2.10;99.90;;;;;;5012499;28;20196;-81
2022/04/12 02:56:55;;;;;;;11.87;6.53;;;2.10;99.90;;;;;;5012722;28;20101;-81
2022/04/12 02:59:21;;;;;;;10.13;7.17;;;2.10;99.90;;;;;;5012473;28;20030;-81
2022/04/12 03:01:46;;;;;;;11.00;6.30;;;2.10;99.90;;;;;;5012257;28;20030;-81
2022/04/12 03:04:12;;;;;;;10.87;6.00;;;2.10;99.90;;;;;;5012675;28;20538;-81
2022/04/12 03:06:38;;;;;;;14.40;6.50;;;2.10;99.90;;;;;;5011040;28;20533;-81
2022/04/12 03:09:03;;;;;;;11.07;5.80;;;2.10;99.90;;;;;;5012174;28;20065;-81
2022/04/12 03:11:29;;;;;;;11.57;5.47;;;2.10;99.90;;;;;;5010952;28;20025;-82
2022/04/12 03:13:54;;;;;;;10.60;5.97;;;2.10;99.90;;;;;;5012068;28;20030;-81
2022/04/12 03:16:20;;;;;;;11.53;5.87;;;2.10;99.90;;;;;;5012084;28;20060;-81
2022/04/12 03:18:46;;;;;;;7.67;5.87;;;2.10;99.90;;;;;;5024144;28;20022;-81
2022/04/12 03:21:11;;;;;;;11.17;6.00;;;2.10;99.90;;;;;;5007540;28;20026;-81
2022/04/12 03:23:37;;;;;;;9.80;5.77;;;2.00;99.90;;;;;;4992404;28;20415;-81
2022/04/12 03:26:03;;;;;;;9.43;6.13;;;2.00;99.90;;;;;;4991010;28;20034;-81
2022/04/12 03:28:29;;;;;;;10.63;5.80;;;2.00;99.90;;;;;;4992639;28;20557;-81
2022/04/12 03:30:55;;;;;;;9.33;6.43;;;1.90;99.90;;;;;;4992704;28;20113;-81
2022/04/12 03:33:20;;;;;;;12.53;7.30;;;1.90;99.90;;;;;;4990729;28;20050;-81
2022/04/12 03:35:46;;;;;;;13.47;7.40;;;1.90;99.90;;;;;;4992130;28;20037;-81
2022/04/12 03:38:14;;;;;;;15.80;8.27;;;1.90;99.90;;;;;;4996638;28;20041;-81
2022/04/12 03:40:41;;;;;;;17.07;7.80;;;1.90;99.90;;;;;;5011427;28;20775;-81
2022/04/12 03:43:07;;;;;;;15.37;7.63;;;1.90;99.90;;;;;;5011880;28;20022;-81
2022/04/12 03:45:33;;;;;;;14.40;8.43;;;1.90;99.90;;;;;;5010273;28;20075;-81
2022/04/12 03:47:59;;;;;;;12.33;7.30;;;1.90;99.90;;;;;;5011656;28;20030;-81
2022/04/12 03:50:25;;;;;;;10.20;6.40;;;1.80;99.90;;;;;;5001143;28;20022;-81
2022/04/12 03:52:51;;;;;;;12.13;6.23;;;1.80;99.90;;;;;;4992181;28;20026;-81
2022/04/12 03:55:30;;;;;;;10.97;6.77;;;1.70;99.90;;;;;;4990157;28;20475;-81
2022/04/12 03:58:00;;;;;;;9.50;6.60;;;1.70;99.90;;;;;;4994813;28;20022;-81
2022/04/12 04:00:26;;;;;;;12.83;6.73;;;1.70;99.90;;;;;;5006929;28;20485;-81
2022/04/12 04:02:52;;;;;;;11.90;7.57;;;1.60;99.90;;;;;;4990669;28;20029;-81
2022/04/12 04:05:17;;;;;;;20.60;12.40;;;1.60;99.90;;;;;;4990470;28;20350;-81
2022/04/12 04:07:43;;;;;;;20.70;10.33;;;1.60;99.90;;;;;;4995774;28;20026;-81
2022/04/12 04:10:09;;;;;;;16.93;10.87;;;1.60;99.90;;;;;;5022276;28;20052;-80
2022/04/12 04:12:34;;;;;;;16.20;8.77;;;1.60;99.90;;;;;;5018930;28;20029;-80
2022/04/12 04:15:00;;;;;;;17.20;9.10;;;1.60;99.90;;;;;;5017239;28;20033;-80
2022/04/12 04:17:26;;;;;;;17.43;8.70;;;1.60;99.90;;;;;;5021854;28;20387;-80
2022/04/12 04:19:52;;;;;;;13.07;8.27;;;1.60;99.90;;;;;;5013352;28;20038;-80
2022/04/12 04:22:17;;;;;;;11.13;7.00;;;1.60;99.90;;;;;;5021090;28;20045;-80
2022/04/12 04:24:43;;;;;;;14.23;7.30;;;1.60;99.90;;;;;;5021636;28;20045;-80
2022/04/12 04:27:09;;;;;;;10.00;6.83;;;1.60;99.90;;;;;;5021131;28;20376;-80
2022/04/12 04:29:35;;;;;;;15.90;7.07;;;1.60;99.90;;;;;;5022460;28;20057;-80
2022/04/12 04:32:01;;;;;;;12.40;6.73;;;1.70;99.90;;;;;;5018570;28;20017;-80
2022/04/12 04:34:27;;;;;;;11.57;7.27;;;1.60;99.90;;;;;;5026886;28;20033;-80
2022/04/12 04:36:52;;;;;;;13.60;8.80;;;1.60;99.90;;;;;;5036198;28;20022;-80
2022/04/12 04:39:18;;;;;;;16.40;8.63;;;1.70;99.90;;;;;;5028465;28;20451;-80
2022/04/12 04:41:43;;;;;;;14.63;7.50;;;1.70;99.90;;;;;;5021963;28;20467;-80
2022/04/12 04:44:09;;;;;;;12.53;7.63;;;1.70;99.90;;;;;;5019624;28;20402;-80
2022/04/12 04:46:34;;;;;;;11.10;6.90;;;1.70;99.90;;;;;;5019586;28;20847;-81
2022/04/12 04:49:00;;;;;;;14.13;7.40;;;1.70;99.90;;;;;;5007142;28;20029;-81
2022/04/12 04:51:26;;;;;;;18.47;7.70;;;1.80;99.90;;;;;;5001968;28;20034;-81
2022/04/12 04:53:58;;;;;;;13.70;8.97;;;2.00;99.90;;;;;;5014301;28;20387;-80
2022/04/12 04:56:25;;;;;;;65.13;32.60;;;1.90;99.90;;;;;;5012803;28;20052;-80
2022/04/12 04:58:51;;;;;;;103.43;52.50;;;1.80;99.90;;;;;;5015712;28;20041;-77
2022/04/12 05:01:17;;;;;;;81.40;41.43;;;1.80;99.90;;;;;;5023378;28;20084;-77
2022/04/12 05:03:42;;;;;;;76.87;37.43;;;1.70;99.90;;;;;;5031573;28;20026;-77
2022/04/12 05:06:08;;;;;;;28.10;16.23;;;1.70;99.90;;;;;;5019262;28;20029;-77
2022/04/12 05:08:33;;;;;;;25.17;11.97;;;1.80;99.90;;;;;;5004014;28;20030;-77
2022/04/12 05:10:59;;;;;;;17.03;8.23;;;1.80;99.90;;;;;;5008291;28;20032;-77
2022/04/12 05:13:24;;;;;;;14.33;6.93;;;1.80;99.90;;;;;;5008378;28;20022;-78
2022/04/12 05:15:50;;;;;;;12.13;7.30;;;1.90;99.90;;;;;;5029380;28;20079;-78
2022/04/12 05:18:16;;;;;;;16.40;7.40;;;2.00;99.90;;;;;;5012747;28;20048;-78
2022/04/12 05:20:41;;;;;;;20.33;8.57;;;2.00;99.90;;;;;;5022746;28;20087;-77
2022/04/12 05:23:07;;;;;;;22.23;11.53;;;2.00;99.90;;;;;;5005385;28;20026;-78
2022/04/12 05:25:33;;;;;;;24.90;12.63;;;2.00;99.90;;;;;;4997051;28;20499;-77
2022/04/12 05:27:58;;;;;;;21.93;13.20;;;2.10;99.90;;;;;;5010335;28;20471;-78
2022/04/12 05:30:24;;;;;;;22.27;11.43;;;2.10;99.90;;;;;;5011972;28;20034;-77
2022/04/12 05:32:49;;;;;;;20.10;10.70;;;2.30;99.90;;;;;;5026511;28;20060;-71
2022/04/12 05:35:15;;;;;;;46.37;22.27;;;2.40;99.90;;;;;;5025998;28;20029;-78
2022/04/12 05:37:51;;;;;;;78.53;33.37;;;2.60;99.90;;;;;;5009179;28;20461;-78
2022/04/12 05:40:18;;;;;;;142.50;66.97;;;2.70;99.90;;;;;;4991286;28;20141;-78
2022/04/12 05:42:44;;;;;;;38.63;21.90;;;2.80;99.90;;;;;;4996085;28;20139;-78
2022/04/12 05:45:11;;;;;;;34.53;16.93;;;2.90;99.90;;;;;;5010075;28;20084;-78
2022/04/12 05:48:03;;;;;;;21.80;13.13;;;3.20;99.90;;;;;;5006624;28;20033;-78
2022/04/12 05:50:29;;;;;;;21.17;12.33;;;3.50;99.90;;;;;;5022490;28;20061;-78
2022/04/12 05:52:55;;;;;;;29.20;14.20;;;3.70;99.90;;;;;;5006546;28;20503;-78
2022/04/12 05:55:23;;;;;;;21.70;11.37;;;3.90;99.90;;;;;;5006819;28;20122;-78
2022/04/12 05:57:56;;;;;;;19.17;10.83;;;4.10;99.90;;;;;;5005972;28;20487;-78
2022/04/12 06:00:23;;;;;;;25.93;11.73;;;4.20;99.90;;;;;;5022984;28;20026;-78
2022/04/12 06:02:52;;;;;;;22.70;12.57;;;4.30;99.90;;;;;;5009584;28;20506;-78
2022/04/12 06:05:18;;;;;;;21.93;10.90;;;4.40;99.90;;;;;;5007567;28;20061;-78
2022/04/12 06:07:44;;;;;;;28.17;11.23;;;4.60;99.90;;;;;;5019709;28;20026;-70
2022/04/12 06:10:12;;;;;;;25.87;11.90;;;4.80;99.90;;;;;;5014847;28;20068;-70
2022/04/12 06:12:38;;;;;;;18.23;11.00;;;4.90;99.90;;;;;;5014902;28;20032;-70
2022/04/12 06:15:05;;;;;;;96.83;61.60;;;5.10;99.90;;;;;;5008920;28;20556;-78
2022/04/12 06:17:32;;;;;;;25.37;12.37;;;5.10;99.90;;;;;;5006316;28;20037;-78
2022/04/12 06:20:18;;;;;;;28.43;15.30;;;5.30;99.90;;;;;;5007576;28;20034;-78
2022/04/12 06:22:44;;;;;;;53.97;24.97;;;5.50;99.90;;;;;;5006325;28;20030;-79
2022/04/12 06:25:11;;;;;;;123.00;47.73;;;5.70;99.90;;;;;;5006673;28;20072;-78
2022/04/12 06:27:39;;;;;;;239.10;81.10;;;5.80;99.90;;;;;;5006062;28;20033;-79
2022/04/12 06:30:12;;;;;;;114.07;45.63;;;5.90;99.90;;;;;;5007652;28;20042;-79
2022/04/12 06:32:39;;;;;;;44.33;24.23;;;6.10;99.90;;;;;;5006927;28;20092;-78
2022/04/12 06:35:06;;;;;;;17.80;10.27;;;6.30;99.90;;;;;;5008277;28;20101;-78
2022/04/12 06:37:32;;;;;;;27.97;10.77;;;6.50;99.90;;;;;;5005874;28;20042;-78
2022/04/12 06:39:59;;;;;;;21.50;11.87;;;6.60;99.90;;;;;;5006352;28;20041;-78
2022/04/12 06:42:26;;;;;;;19.23;9.77;;;6.70;99.90;;;;;;5008521;28;20352;-78
2022/04/12 06:44:52;;;;;;;32.27;13.00;;;6.80;99.90;;;;;;5005559;28;20056;-79
2022/04/12 06:47:18;;;;;;;22.53;9.57;;;6.80;99.90;;;;;;5002625;28;21883;-79
2022/04/12 06:49:47;;;;;;;17.70;10.00;;;7.10;99.90;;;;;;5006268;28;20081;-79
2022/04/12 06:52:14;;;;;;;21.93;10.23;;;7.30;99.90;;;;;;5005897;28;20029;-79
2022/04/12 06:54:40;;;;;;;16.90;9.40;;;7.60;99.90;;;;;;5005227;28;20386;-79
2022/04/12 06:57:06;;;;;;;17.63;8.57;;;7.70;99.90;;;;;;5006791;28;20475;-80
2022/04/12 06:59:32;;;;;;;18.80;7.80;;;7.80;99.90;;;;;;5006321;28;20037;-79
2022/04/12 07:01:58;;;;;;;15.47;6.93;;;7.90;99.90;;;;;;5005372;28;20052;-79
2022/04/12 07:04:24;;;;;;;11.40;6.87;;;7.90;99.90;;;;;;5005460;28;20030;-79
2022/04/12 07:06:50;;;;;;;11.43;6.20;;;8.00;99.90;;;;;;5005854;28;20474;-79
2022/04/12 07:09:20;;;;;;;16.23;6.97;;;8.00;99.90;;;;;;5005999;28;20036;-80
2022/04/12 07:11:52;;;;;;;16.70;6.60;;;8.20;99.90;;;;;;5006152;28;20510;-79
2022/04/12 07:14:17;;;;;;;13.23;7.00;;;8.20;99.90;;;;;;5005700;28;20508;-79
2022/04/12 07:16:43;;;;;;;13.20;7.40;;;8.30;99.90;;;;;;5004891;28;20038;-79
2022/04/12 07:19:08;;;;;;;15.40;6.37;;;8.40;99.90;;;;;;5006352;28;20665;-79
2022/04/12 07:21:34;;;;;;;10.10;6.33;;;8.80;99.90;;;;;;5006257;28;20030;-79
2022/04/12 07:24:00;;;;;;;11.13;5.20;;;8.90;99.90;;;;;;5001521;28;20414;-79
2022/04/12 07:26:26;;;;;;;14.50;5.27;;;9.10;99.90;;;;;;5004890;28;20091;-79
2022/04/12 07:28:52;;;;;;;56.30;16.50;;;9.30;99.90;;;;;;5005779;28;20453;-80
2022/04/12 07:31:17;;;;;;;38.57;9.80;;;9.50;99.90;;;;;;5006475;28;20038;-79
2022/04/12 07:33:43;;;;;;;57.87;14.93;;;9.60;99.90;;;;;;5006113;28;20057;-80
2022/04/12 07:36:08;;;;;;;20.67;8.30;;;9.80;99.90;;;;;;5006098;28;20518;-79
2022/04/12 07:38:34;;;;;;;10.37;6.03;;;9.80;99.90;;;;;;5005194;28;20569;-79
2022/04/12 07:40:59;;;;;;;7.60;4.20;;;10.10;99.90;;;;;;5018366;28;20034;-79
2022/04/12 07:43:25;;;;;;;12.23;4.83;;;10.50;99.90;;;;;;5006121;28;20034;-79
2022/04/12 07:45:50;;;;;;;5.97;3.90;;;10.60;99.90;;;;;;5006046;28;20030;-79
2022/04/12 07:48:16;;;;;;;8.17;3.57;;;10.50;99.90;;;;;;5002354;28;20038;-79
2022/04/12 07:50:42;;;;;;;9.60;3.83;;;10.80;99.90;;;;;;5005766;28;20477;-79
2022/04/12 07:53:07;;;;;;;8.17;4.00;;;10.70;99.90;;;;;;5005556;28;20029;-79
2022/04/12 07:55:33;;;;;;;8.20;5.10;;;10.60;99.90;;;;;;5004003;28;20045;-79
2022/04/12 07:57:58;;;;;;;12.83;5.43;;;10.60;99.90;;;;;;5003386;28;20066;-79
2022/04/12 08:00:24;;;;;;;14.90;5.17;;;10.80;99.90;;;;;;5005905;28;20036;-79
2022/04/12 08:02:50;;;;;;;6.93;4.63;;;11.00;99.90;;;;;;5007413;28;20116;-79
2022/04/12 08:05:16;;;;;;;11.43;4.27;;;11.10;99.90;;;;;;5003154;28;20053;-79
2022/04/12 08:07:47;;;;;;;11.20;4.40;;;11.30;99.90;;;;;;5004583;28;20038;-79
2022/04/12 08:10:17;;;;;;;8.50;4.93;;;11.50;99.90;;;;;;5005475;28;20032;-79
2022/04/12 08:12:43;;;;;;;10.80;5.07;;;11.70;99.90;;;;;;5020015;28;20041;-79
2022/04/12 08:15:14;;;;;;;10.40;4.47;;;11.90;99.90;;;;;;5005380;28;20034;-79
2022/04/12 08:17:42;;;;;;;10.80;5.40;;;12.10;99.90;;;;;;5004372;28;20044;-79
2022/04/12 08:20:09;;;;;;;13.20;4.67;;;12.20;99.90;;;;;;5005062;28;20038;-79
2022/04/12 08:22:36;;;;;;;7.93;4.30;;;12.30;99.90;;;;;;5005155;28;20041;-79
2022/04/12 08:25:03;;;;;;;7.80;5.43;;;12.30;99.90;;;;;;5008569;28;20029;-79
2022/04/12 08:27:29;;;;;;;14.85;5.43;;;12.30;99.90;;;;;;5016681;28;20033;-79
2022/04/12 08:29:54;;;;;;;14.07;4.43;;;12.50;99.90;;;;;;5021742;28;20164;-72
2022/04/12 08:32:23;;;;;;;14.55;5.80;;;12.60;99.90;;;;;;5012792;28;20490;-81
2022/04/12 08:34:48;;;;;;;19.15;9.30;;;12.70;99.90;;;;;;4997238;28;20031;-81
2022/04/12 08:37:14;;;;;;;8.27;4.20;;;12.80;99.90;;;;;;5016030;28;20489;-81
2022/04/12 08:39:39;;;;;;;16.05;8.00;;;12.90;99.90;;;;;;5016341;28;20112;-82
2022/04/12 08:42:06;;;;;;;23.85;9.60;;;12.90;99.90;;;;;;5004483;28;20120;-81
2022/04/12 08:44:33;;;;;;;15.30;6.95;;;13.00;99.90;;;;;;5009478;28;20033;-81
2022/04/12 08:47:03;;;;;;;14.18;5.82;;;13.30;99.90;;;;;;5015459;28;20037;-81
2022/04/12 08:49:29;;;;;;;8.10;4.43;;;13.40;99.90;;;;;;5014337;28;20040;-81
2022/04/12 08:51:55;;;;;;;7.72;3.90;;;13.80;99.90;;;;;;5015499;28;20042;-81
2022/04/12 08:54:21;;;;;;;10.18;4.80;;;13.90;99.90;;;;;;5014897;28;20579;-81
2022/04/12 08:56:50;;;;;;;11.13;4.50;;;14.00;99.90;;;;;;5011195;28;20022;-81
2022/04/12 08:59:17;;;;;;;5.95;3.60;;;14.10;99.90;;;;;;5012356;28;20364;-81
2022/04/12 09:01:43;;;;;;;17.67;3.78;;;14.30;99.90;;;;;;5013589;28;20033;-81
2022/04/12 09:04:09;;;;;;;10.60;3.08;;;14.50;99.90;;;;;;5013122;28;20060;-81
2022/04/12 09:06:46;;;;;;;8.00;3.80;;;14.60;99.90;;;;;;5014788;28;20026;-81
2022/04/12 09:09:15;;;;;;;7.82;2.88;;;14.50;99.90;;;;;;5018382;28;20532;-80
2022/04/12 09:11:54;;;;;;;11.88;3.05;;;15.00;99.90;;;;;;5015075;28;20470;-80
2022/04/12 09:14:19;;;;;;;6.55;2.90;;;15.60;99.90;;;;;;5006753;28;20522;-80
2022/04/12 09:16:46;;;;;;;8.75;3.08;;;15.60;99.90;;;;;;5014998;28;20106;-80
2022/04/12 09:19:12;;;;;;;5.97;3.08;;;15.90;99.90;;;;;;5010919;28;20033;-80
2022/04/12 09:21:47;;;;;;;4.22;2.13;;;16.10;99.90;;;;;;5014435;28;20038;-80
2022/04/12 09:24:22;;;;;;;5.53;2.42;;;16.70;99.90;;;;;;5013436;28;20087;-81
2022/04/12 09:26:57;;;;;;;9.90;3.00;;;17.00;99.40;;;;;;5014542;28;20475;-80
2022/04/12 09:29:27;;;;;;;4.80;2.40;;;16.90;98.30;;;;;;5009156;28;20390;-77
2022/04/12 09:31:56;;;;;;;4.20;2.40;;;17.00;97.40;;;;;;5008166;28;20390;-77
2022/04/12 09:34:23;;;;;;;4.60;2.17;;;17.30;97.30;;;;;;5013917;28;20069;-77
2022/04/12 09:36:49;;;;;;;6.43;2.38;;;17.60;95.60;;;;;;5009961;28;20072;-80
2022/04/12 09:39:19;;;;;;;7.80;3.10;;;17.60;95.50;;;;;;5017992;28;20374;-80
2022/04/12 09:41:47;;;;;;;6.50;2.30;;;17.70;95.20;;;;;;5016292;28;20022;-75
2022/04/12 09:44:17;;;;;;;6.05;3.00;;;18.00;93.90;;;;;;5016093;28;20022;-75
2022/04/12 09:46:44;;;;;;;6.78;2.70;;;18.30;93.20;;;;;;5016724;28;20498;-76
2022/04/12 09:49:10;;;;;;;5.00;2.20;;;18.50;93.90;;;;;;5015779;28;20026;-76
2022/04/12 09:51:36;;;;;;;7.70;2.95;;;18.80;91.90;;;;;;5015384;28;20025;-76
2022/04/12 09:54:03;;;;;;;4.32;2.40;;;18.70;90.00;;;;;;5016152;28;20033;-76
2022/04/12 09:56:30;;;;;;;5.07;2.60;;;18.90;90.50;;;;;;5016007;28;20026;-76
2022/04/12 09:58:58;;;;;;;4.80;2.25;;;18.90;91.70;;;;;;5015979;28;20101;-77
2022/04/12 10:01:24;;;;;;;7.00;2.22;;;19.30;89.20;;;;;;5014132;28;20459;-77
2022/04/12 10:03:52;;;;;;;5.75;2.45;;;19.20;88.90;;;;;;5030801;28;20025;-77
2022/04/12 10:06:20;;;;;;;8.18;2.20;;;19.30;87.90;;;;;;5014895;28;20018;-72
2022/04/12 10:08:51;;;;;;;6.32;2.78;;;19.50;85.20;;;;;;5015542;28;20022;-82
2022/04/12 10:11:18;;;;;;;12.18;3.60;;;19.50;88.50;;;;;;5016677;28;20049;-82
2022/04/12 10:13:44;;;;;;;5.65;3.13;;;20.00;89.80;;;;;;5017026;28;20108;-82
2022/04/12 10:16:13;;;;;;;7.18;3.17;;;20.30;89.90;;;;;;5018625;28;20097;-81
2022/04/12 10:18:39;;;;;;;8.73;3.58;;;20.60;86.30;;;;;;5020329;28;20026;-82
2022/04/12 10:21:06;;;;;;;8.90;6.60;;;20.50;88.90;;;;;;5037857;28;20479;-82
2022/04/12 10:23:33;;;;;;;8.07;3.70;;;20.30;89.50;;;;;;5020759;28;20029;-82
2022/04/12 10:26:00;;;;;;;5.32;3.45;;;20.40;90.80;;;;;;5023818;28;20077;-82
2022/04/12 10:28:28;;;;;;;5.75;3.58;;;20.40;90.40;;;;;;5019334;28;20355;-82
2022/04/12 10:31:18;;;;;;;6.85;3.60;;;20.70;88.60;;;;;;5023818;28;20018;-83
2022/04/12 10:33:51;;;;;;;8.95;3.50;;;20.60;88.40;;;;;;5024566;28;20371;-83
2022/04/12 10:36:17;;;;;;;8.13;4.00;;;20.30;86.90;;;;;;5022511;28;20208;-80
2022/04/12 10:38:43;;;;;;;8.60;3.90;;;20.60;89.40;;;;;;5025543;28;20076;-83
2022/04/12 10:41:28;;;;;;;6.55;3.90;;;20.50;88.50;;;;;;5022645;28;20033;-83
2022/04/12 10:43:58;;;;;;;7.05;4.68;;;20.40;87.80;;;;;;5024782;28;20093;-81
2022/04/12 10:46:26;;;;;;;7.65;3.00;;;20.30;87.80;;;;;;5026550;28;20053;-82
2022/04/12 10:48:55;;;;;;;5.85;3.55;;;20.20;86.00;;;;;;5020239;28;20471;-82
2022/04/12 10:51:39;;;;;;;7.28;3.30;;;20.30;87.80;;;;;;5026899;28;20021;-81
2022/04/12 10:54:06;;;;;;;5.30;2.80;;;20.90;87.80;;;;;;5026926;28;20014;-81
2022/04/12 10:56:32;;;;;;;7.10;2.80;;;21.00;85.10;;;;;;5027203;28;20010;-84
2022/04/12 10:58:57;;;;;;;5.75;3.05;;;21.00;84.10;;;;;;5026816;28;20030;-82
2022/04/12 11:01:32;;;;;;;8.07;2.67;;;20.90;84.70;;;;;;5026941;28;20037;-82
2022/04/12 11:04:00;;;;;;;6.55;3.03;;;21.20;83.10;;;;;;5029648;28;20036;-82
2022/04/12 11:06:34;;;;;;;5.90;2.70;;;21.20;80.20;;;;;;5029986;28;20089;-82
2022/04/12 11:09:16;;;;;;;8.60;2.72;;;21.40;78.90;;;;;;5029204;28;20022;-81
2022/04/12 11:11:45;;;;;;;7.40;2.65;;;21.50;77.80;;;;;;5034697;28;20018;-82
2022/04/12 11:14:25;;;;;;;4.45;2.65;;;21.10;78.50;;;;;;5017527;28;20068;-77
2022/04/12 11:16:56;;;;;;;5.90;2.85;;;21.50;79.00;;;;;;5013765;28;20501;-77
2022/04/12 11:19:23;;;;;;;4.68;2.70;;;21.90;78.40;;;;;;5014036;28;20037;-77
2022/04/12 11:21:50;;;;;;;6.05;2.45;;;22.00;76.10;;;;;;5013759;28;20025;-77
2022/04/12 11:24:17;;;;;;;6.10;2.72;;;22.20;74.30;;;;;;5013724;28;20014;-77
2022/04/12 11:26:50;;;;;;;6.50;2.90;;;22.10;71.30;;;;;;5014004;28;20022;-78
2022/04/12 11:29:21;;;;;;;8.70;2.88;;;22.10;72.40;;;;;;5013140;28;20025;-80
2022/04/12 11:31:51;;;;;;;4.10;2.55;;;22.10;76.00;;;;;;5010164;28;20478;-79
2022/04/12 11:34:18;;;;;;;7.88;2.92;;;22.40;72.30;;;;;;5008903;28;20049;-80
2022/04/12 11:36:56;;;;;;;5.28;2.80;;;22.30;72.80;;;;;;5010210;28;20022;-80
2022/04/12 11:39:29;;;;;;;5.45;3.00;;;22.50;74.40;;;;;;5009715;28;20028;-79
2022/04/12 11:42:00;;;;;;;5.23;2.50;;;22.60;74.40;;;;;;5025919;28;20033;-80
2022/04/12 11:44:26;;;;;;;8.15;3.45;;;22.30;75.70;;;;;;5009988;28;20032;-79
2022/04/12 11:46:57;;;;;;;5.38;3.03;;;22.70;75.80;;;;;;5009958;28;20125;-79
2022/04/12 11:49:31;;;;;;;5.35;2.78;;;23.00;72.30;;;;;;5008279;28;20029;-80
2022/04/12 11:52:01;;;;;;;3.53;2.80;;;23.00;73.00;;;;;;5011460;28;20029;-79
2022/04/12 11:54:36;;;;;;;7.40;3.33;;;22.50;75.00;;;;;;5008080;28;20084;-80
2022/04/12 11:57:09;;;;;;;5.60;2.75;;;22.50;74.70;;;;;;5011275;28;20101;-79
2022/04/12 11:59:50;;;;;;;4.80;2.95;;;23.00;72.50;;;;;;5010344;28;20037;-79
2022/04/12 12:02:19;;;;;;;7.43;3.30;;;23.20;73.30;;;;;;5009777;28;20029;-79
2022/04/12 12:04:53;;;;;;;5.63;2.53;;;23.20;71.90;;;;;;5009161;28;20062;-79
2022/04/12 12:07:19;;;;;;;8.52;3.40;;;23.00;71.70;;;;;;5012599;28;20112;-72
2022/04/12 12:10:04;;;;;;;5.25;3.28;;;23.00;72.20;;;;;;5013419;28;20030;-72
2022/04/12 12:12:45;;;;;;;6.40;3.20;;;23.50;72.20;;;;;;5013552;28;20022;-72
2022/04/12 12:15:14;;;;;;;6.35;3.08;;;23.80;74.00;;;;;;5011718;28;20034;-72
2022/04/12 12:17:40;;;;;;;7.25;3.20;;;23.90;72.00;;;;;;5012393;28;20398;-72
2022/04/12 12:20:07;;;;;;;7.88;3.50;;;24.60;67.40;;;;;;5013225;28;20061;-71
2022/04/12 12:22:37;;;;;;;4.00;2.90;;;24.60;68.00;;;;;;5008827;28;20101;-70
2022/04/12 12:25:03;;;;;;;5.30;2.60;;;24.70;68.70;;;;;;5012588;28;20482;-70
2022/04/12 12:27:33;;;;;;;6.18;2.70;;;24.40;70.50;;;;;;5012266;28;20022;-70
2022/04/12 12:30:10;;;;;;;5.38;2.88;;;24.60;68.90;;;;;;5015453;28;20104;-70
2022/04/12 12:32:37;;;;;;;6.80;3.40;;;24.40;67.40;;;;;;5009271;28;21186;-70
2022/04/12 12:35:17;;;;;;;5.80;3.45;;;24.60;65.60;;;;;;5012357;28;20029;-70
2022/04/12 12:37:44;;;;;;;5.00;3.22;;;24.30;66.70;;;;;;5011419;28;20371;-70
2022/04/12 12:40:23;;;;;;;7.90;2.97;;;24.30;66.50;;;;;;5012019;28;20395;-70
2022/04/12 12:42:53;;;;;;;4.90;2.67;;;24.20;66.00;;;;;;5011487;28;20022;-70
2022/04/12 12:45:21;;;;;;;4.85;3.35;;;24.00;68.70;;;;;;5011875;28;20076;-70
2022/04/12 12:47:53;;;;;;;6.95;3.35;;;23.90;68.70;;;;;;5009390;28;20030;-70